createdAt,value
2022-11-15T00:00:13.955Z,95.39
2022-11-15T00:02:44.081Z,95.41
2022-11-15T00:05:16.119Z,95.46
2022-11-15T00:08:00.398Z,95.47
2022-11-15T00:10:28.698Z,95.47
2022-11-15T00:12:59.309Z,95.42
2022-11-15T00:15:27.610Z,95.39
2022-11-15T00:17:57.065Z,95.40
2022-11-15T00:20:28.763Z,95.35
2022-11-15T00:22:57.135Z,95.36
2022-11-15T00:25:25.730Z,95.35
2022-11-15T00:27:58.467Z,95.33
2022-11-15T00:30:28.695Z,95.32
2022-11-15T00:33:05.103Z,95.30
2022-11-15T00:35:35.279Z,95.28
2022-11-15T00:38:05.152Z,95.38
2022-11-15T00:40:34.637Z,95.41
2022-11-15T00:43:02.891Z,95.43
2022-11-15T00:45:31.096Z,95.46
2022-11-15T00:47:59.370Z,95.46
2022-11-15T00:50:29.514Z,95.43
2022-11-15T00:53:02.215Z,95.41
2022-11-15T00:55:30.401Z,95.37
2022-11-15T00:57:58.558Z,95.38
2022-11-15T01:00:27.222Z,95.41
2022-11-15T01:02:57.165Z,95.41
2022-11-15T01:05:25.415Z,95.39
2022-11-15T01:07:55.105Z,95.45
2022-11-15T01:10:28.824Z,95.47
2022-11-15T01:12:59.616Z,95.46
2022-11-15T01:15:28.113Z,95.46
2022-11-15T01:17:57.792Z,95.51
2022-11-15T01:20:28.063Z,95.52
2022-11-15T01:22:56.191Z,95.58
2022-11-15T01:25:26.738Z,95.59
2022-11-15T01:27:57.503Z,95.64
2022-11-15T01:30:27.528Z,95.63
2022-11-15T01:32:55.664Z,95.63
2022-11-15T01:35:26.079Z,95.54
2022-11-15T01:37:54.231Z,95.49
2022-11-15T01:40:22.511Z,95.50
2022-11-15T01:42:57.610Z,95.46
2022-11-15T01:45:27.024Z,95.42
2022-11-15T01:47:57.361Z,95.43
2022-11-15T01:50:29.277Z,95.50
2022-11-15T01:53:00.176Z,95.53
2022-11-15T01:55:30.327Z,95.54
2022-11-15T01:58:03.289Z,95.51
2022-11-15T02:00:32.205Z,95.40
2022-11-15T02:03:00.438Z,95.25
2022-11-15T02:05:28.751Z,95.18
2022-11-15T02:07:56.888Z,95.14
2022-11-15T02:10:26.186Z,95.14
2022-11-15T02:12:59.415Z,95.13
2022-11-15T02:15:38.159Z,95.13
2022-11-15T02:18:13.337Z,95.13
2022-11-15T02:20:46.508Z,95.08
2022-11-15T02:23:47.359Z,95.02
2022-11-15T02:26:45.439Z,94.99
2022-11-15T02:29:24.321Z,94.80
2022-11-15T02:31:58.359Z,94.65
2022-11-15T02:34:33.912Z,94.58
2022-11-15T02:37:06.337Z,94.54
2022-11-15T02:39:36.901Z,94.50
2022-11-15T02:42:28.918Z,94.44
2022-11-15T02:44:58.189Z,94.38
2022-11-15T02:47:30.297Z,94.41
2022-11-15T02:50:01.247Z,94.38
2022-11-15T02:52:29.379Z,94.35
2022-11-15T02:54:58.955Z,94.26
2022-11-15T02:57:37.750Z,94.17
2022-11-15T03:00:13.353Z,94.03
2022-11-15T03:02:58.777Z,94.13
2022-11-15T03:05:34.284Z,94.21
2022-11-15T03:08:05.224Z,94.27
2022-11-15T03:10:44.909Z,94.20
2022-11-15T03:13:21.643Z,94.25
2022-11-15T03:15:55.155Z,94.11
2022-11-15T03:18:30.913Z,94.03
2022-11-15T03:21:00.438Z,94.06
2022-11-15T03:23:31.495Z,93.91
2022-11-15T03:26:00.968Z,93.80
2022-11-15T03:28:35.010Z,93.71
2022-11-15T03:31:28.459Z,93.62
2022-11-15T03:34:04.243Z,93.57
2022-11-15T03:36:34.116Z,93.63
2022-11-15T03:39:05.624Z,93.65
2022-11-15T03:41:41.324Z,93.70
2022-11-15T03:44:18.104Z,93.80
2022-11-15T03:46:52.400Z,93.87
2022-11-15T03:49:24.845Z,93.89
2022-11-15T03:51:53.277Z,93.93
2022-11-15T03:54:21.589Z,93.85
2022-11-15T03:56:50.428Z,93.89
2022-11-15T03:59:18.891Z,93.84
2022-11-15T04:01:47.793Z,93.76
2022-11-15T04:04:16.134Z,93.76
2022-11-15T04:06:46.197Z,93.80
2022-11-15T04:09:14.932Z,93.79
2022-11-15T04:11:44.439Z,93.71
2022-11-15T04:14:13.007Z,93.65
2022-11-15T04:16:44.033Z,93.81
2022-11-15T04:19:30.280Z,93.92
2022-11-15T04:22:19.822Z,93.98
2022-11-15T04:24:48.381Z,94.04
2022-11-15T04:27:16.777Z,94.10
2022-11-15T04:29:45.529Z,94.14
2022-11-15T04:32:13.862Z,94.09
2022-11-15T04:34:42.481Z,94.12
2022-11-15T04:37:14.638Z,94.23
2022-11-15T04:39:45.065Z,94.25
2022-11-15T04:42:17.743Z,94.42
2022-11-15T04:44:48.493Z,94.54
2022-11-15T04:47:19.897Z,94.69
2022-11-15T04:49:51.568Z,94.79
2022-11-15T04:52:21.004Z,94.94
2022-11-15T04:54:49.134Z,95.01
2022-11-15T04:57:17.854Z,95.11
2022-11-15T04:59:48.048Z,95.16
2022-11-15T05:02:17.422Z,95.25
2022-11-15T05:04:45.497Z,95.30
2022-11-15T05:07:14.834Z,95.44
2022-11-15T05:09:45.743Z,95.45
2022-11-15T05:12:14.082Z,95.48
2022-11-15T05:14:42.643Z,95.50
2022-11-15T05:17:10.785Z,95.57
2022-11-15T05:19:39.476Z,95.58
2022-11-15T05:22:09.329Z,95.62
2022-11-15T05:24:38.465Z,95.58
2022-11-15T05:27:10.357Z,95.51
2022-11-15T05:29:40.878Z,95.52
2022-11-15T05:32:11.010Z,95.47
2022-11-15T05:34:38.994Z,95.53
2022-11-15T05:37:07.530Z,95.62
2022-11-15T05:39:36.209Z,95.70
2022-11-15T05:42:10.256Z,95.76
2022-11-15T05:44:39.342Z,95.83
2022-11-15T05:47:08.367Z,95.79
2022-11-15T05:49:39.157Z,95.83
2022-11-15T05:52:09.577Z,95.89
2022-11-15T05:54:42.824Z,96.00
2022-11-15T05:57:14.608Z,96.05
2022-11-15T05:59:47.925Z,96.11
2022-11-15T06:02:17.519Z,96.13
2022-11-15T06:04:46.021Z,96.09
2022-11-15T06:07:14.421Z,96.13
2022-11-15T06:09:46.026Z,96.20
2022-11-15T06:12:16.876Z,96.12
2022-11-15T06:14:45.635Z,96.14
2022-11-15T06:17:14.331Z,96.13
2022-11-15T06:19:43.633Z,96.21
2022-11-15T06:22:11.822Z,96.40
2022-11-15T06:24:39.838Z,96.48
2022-11-15T06:27:07.776Z,96.45
2022-11-15T06:29:37.365Z,96.45
2022-11-15T06:32:06.135Z,96.44
2022-11-15T06:34:34.176Z,96.40
2022-11-15T06:37:02.525Z,96.32
2022-11-15T06:39:30.808Z,96.27
2022-11-15T06:42:00.057Z,96.27
2022-11-15T06:44:28.281Z,96.26
2022-11-15T06:46:57.864Z,96.29
2022-11-15T06:49:28.218Z,96.29
2022-11-15T06:51:59.286Z,96.31
2022-11-15T06:54:29.343Z,96.40
2022-11-15T06:57:02.099Z,96.44
2022-11-15T06:59:37.799Z,96.46
2022-11-15T07:02:14.554Z,96.53
2022-11-15T07:04:42.577Z,96.53
2022-11-15T07:07:11.421Z,96.57
2022-11-15T07:09:39.519Z,96.57
2022-11-15T07:12:08.139Z,96.57
2022-11-15T07:14:36.768Z,96.51
2022-11-15T07:17:06.103Z,96.50
2022-11-15T07:19:36.856Z,96.44
2022-11-15T07:22:04.846Z,96.40
2022-11-15T07:24:33.067Z,96.28
2022-11-15T07:27:06.109Z,96.24
2022-11-15T07:29:34.506Z,96.16
2022-11-15T07:32:04.876Z,95.95
2022-11-15T07:34:33.253Z,95.55
2022-11-15T07:37:05.675Z,95.20
2022-11-15T07:39:34.918Z,94.88
2022-11-15T07:42:20.872Z,94.68
2022-11-15T07:44:50.305Z,94.57
2022-11-15T07:47:18.699Z,94.42
2022-11-15T07:49:48.007Z,94.18
2022-11-15T07:52:20.377Z,93.66
2022-11-15T07:54:51.065Z,93.13
2022-11-15T07:57:19.763Z,92.40
2022-11-15T07:59:49.793Z,91.85
2022-11-15T08:02:19.126Z,91.27
2022-11-15T08:04:49.313Z,90.87
2022-11-15T08:07:18.753Z,90.57
2022-11-15T08:09:53.308Z,90.00
2022-11-15T08:12:21.694Z,89.40
2022-11-15T08:14:50.481Z,88.54
2022-11-15T08:17:19.677Z,87.78
2022-11-15T08:19:50.696Z,87.34
2022-11-15T08:22:21.995Z,86.88
2022-11-15T08:24:49.940Z,86.34
2022-11-15T08:27:20.629Z,86.28
2022-11-15T08:29:56.816Z,85.98
2022-11-15T08:32:28.026Z,85.29
2022-11-15T08:34:56.764Z,84.67
2022-11-15T08:37:29.519Z,84.16
2022-11-15T08:39:57.800Z,84.16
2022-11-15T08:42:25.815Z,83.43
2022-11-15T08:44:54.090Z,83.28
2022-11-15T08:47:23.634Z,82.75
2022-11-15T08:49:51.861Z,82.50
2022-11-15T08:52:20.102Z,82.43
2022-11-15T08:54:50.053Z,82.32
2022-11-15T08:57:18.323Z,81.62
2022-11-15T08:59:47.505Z,80.75
2022-11-15T09:02:16.199Z,80.05
2022-11-15T09:04:45.951Z,79.62
2022-11-15T09:07:17.351Z,79.19
2022-11-15T09:09:45.624Z,78.61
2022-11-15T09:12:15.159Z,78.22
2022-11-15T09:14:45.912Z,77.65
2022-11-15T09:17:17.215Z,76.45
2022-11-15T09:19:49.149Z,76.24
2022-11-15T09:22:20.127Z,76.11
2022-11-15T09:24:48.536Z,76.12
2022-11-15T09:27:17.894Z,75.93
2022-11-15T09:29:46.472Z,75.60
2022-11-15T09:32:16.733Z,75.53
2022-11-15T09:34:47.213Z,75.49
2022-11-15T09:37:16.649Z,74.98
2022-11-15T09:39:45.718Z,75.51
2022-11-15T09:42:28.261Z,75.97
2022-11-15T09:44:59.300Z,75.47
2022-11-15T09:47:47.581Z,75.18
2022-11-15T09:50:17.614Z,74.68
2022-11-15T09:52:47.135Z,74.50
2022-11-15T09:55:23.468Z,73.74
2022-11-15T09:58:02.262Z,73.72
2022-11-15T10:00:52.892Z,73.93
2022-11-15T10:03:27.440Z,74.62
2022-11-15T10:06:00.234Z,74.00
2022-11-15T10:08:40.620Z,73.84
2022-11-15T10:14:06.138Z,73.28
2022-11-15T10:17:19.493Z,73.15
2022-11-15T10:20:03.908Z,72.97
2022-11-15T10:22:40.084Z,72.98
2022-11-15T10:25:24.765Z,72.84
2022-11-15T10:27:56.920Z,73.28
2022-11-15T10:30:33.725Z,73.22
2022-11-15T10:33:15.588Z,72.93
2022-11-15T10:35:43.994Z,73.00
2022-11-15T10:38:16.030Z,73.22
2022-11-15T10:40:46.509Z,73.20
2022-11-15T10:43:18.035Z,73.34
2022-11-15T10:45:49.696Z,73.33
2022-11-15T10:48:27.845Z,73.12
2022-11-15T10:50:57.223Z,73.38
2022-11-15T10:53:33.373Z,73.24
2022-11-15T10:56:06.013Z,73.21
2022-11-15T10:58:38.033Z,73.29
2022-11-15T11:01:18.353Z,74.26
2022-11-15T11:03:51.945Z,73.40
2022-11-15T11:06:20.322Z,73.54
2022-11-15T11:08:57.507Z,73.67
2022-11-15T11:11:27.839Z,73.12
2022-11-15T11:13:58.743Z,73.08
2022-11-15T11:16:45.581Z,72.80
2022-11-15T11:19:25.233Z,72.12
2022-11-15T11:22:03.465Z,70.79
2022-11-15T11:24:35.522Z,69.99
2022-11-15T11:27:14.808Z,71.03
2022-11-15T11:29:56.176Z,71.36
2022-11-15T11:33:00.794Z,70.89
2022-11-15T11:35:32.914Z,70.15
2022-11-15T11:38:16.247Z,71.32
2022-11-15T11:40:47.445Z,71.89
2022-11-15T11:43:22.252Z,69.92
2022-11-15T11:46:10.571Z,69.94
2022-11-15T11:48:44.016Z,70.59
2022-11-15T11:51:26.710Z,71.02
2022-11-15T11:54:00.464Z,71.17
2022-11-15T11:56:30.819Z,71.37
2022-11-15T11:59:03.894Z,71.73
2022-11-15T12:01:37.198Z,71.74
2022-11-15T12:04:11.897Z,72.02
2022-11-15T12:06:47.478Z,71.00
2022-11-15T12:09:19.969Z,70.89
2022-11-15T12:11:52.130Z,71.29
2022-11-15T12:14:27.598Z,70.64
2022-11-15T12:16:55.779Z,71.17
2022-11-15T12:19:24.759Z,70.97
2022-11-15T12:22:00.298Z,70.69
2022-11-15T12:24:32.361Z,70.74
2022-11-15T12:27:04.805Z,71.07
2022-11-15T12:29:34.455Z,70.92
2022-11-15T12:32:05.755Z,70.95
2022-11-15T12:34:46.643Z,71.70
2022-11-15T12:37:49.558Z,71.45
2022-11-15T12:40:27.227Z,71.39
2022-11-15T12:43:10.382Z,71.84
2022-11-15T12:45:40.825Z,72.02
2022-11-15T12:49:01.833Z,71.46
2022-11-15T12:52:09.711Z,71.15
2022-11-15T12:55:06.796Z,71.65
2022-11-15T12:57:42.902Z,72.03
2022-11-15T13:00:40.167Z,72.20
2022-11-15T13:03:24.620Z,72.20
2022-11-15T13:06:12.239Z,72.31
2022-11-15T13:08:48.757Z,72.69
2022-11-15T13:11:49.186Z,73.03
2022-11-15T13:14:49.591Z,73.05
2022-11-15T13:17:35.525Z,73.34
2022-11-15T13:20:26.184Z,73.41
2022-11-15T13:23:04.715Z,73.48
2022-11-15T13:26:00.602Z,73.55
2022-11-15T13:28:42.386Z,73.64
2022-11-15T13:31:28.066Z,73.74
2022-11-15T13:33:59.248Z,73.83
2022-11-15T13:36:29.838Z,73.85
2022-11-15T13:39:04.812Z,73.60
2022-11-15T13:41:39.699Z,73.68
2022-11-15T13:44:22.249Z,73.60
2022-11-15T13:47:05.175Z,73.68
2022-11-15T13:49:35.158Z,73.77
2022-11-15T13:52:07.735Z,73.86
2022-11-15T13:54:45.326Z,74.10
2022-11-15T13:57:22.966Z,74.13
2022-11-15T13:59:56.807Z,74.22
2022-11-15T14:02:31.580Z,74.27
2022-11-15T14:05:06.558Z,74.13
2022-11-15T14:07:44.216Z,74.16
2022-11-15T14:10:30.083Z,74.11
2022-11-15T14:13:01.724Z,74.17
2022-11-15T14:15:36.681Z,74.33
2022-11-15T14:18:05.805Z,74.56
2022-11-15T14:20:36.913Z,74.73
2022-11-15T14:23:08.629Z,74.97
2022-11-15T14:25:39.288Z,75.19
2022-11-15T14:28:19.348Z,75.31
2022-11-15T14:30:51.338Z,75.60
2022-11-15T14:33:23.722Z,75.97
2022-11-15T14:35:53.026Z,76.24
2022-11-15T14:38:22.473Z,76.51
2022-11-15T14:40:51.437Z,76.69
2022-11-15T14:43:20.852Z,76.66
2022-11-15T14:45:51.842Z,76.78
2022-11-15T14:48:23.593Z,77.00
2022-11-15T14:50:51.812Z,77.30
2022-11-15T14:53:20.866Z,77.57
2022-11-15T14:55:50.082Z,77.79
2022-11-15T14:58:18.515Z,78.04
2022-11-15T15:00:46.514Z,78.23
2022-11-15T15:03:18.675Z,78.36
2022-11-15T15:05:48.370Z,78.49
2022-11-15T15:08:16.653Z,78.70
2022-11-15T15:10:47.376Z,78.87
2022-11-15T15:13:21.346Z,79.06
2022-11-15T15:15:53.643Z,79.26
2022-11-15T15:18:23.245Z,79.37
2022-11-15T15:20:56.789Z,79.67
2022-11-15T15:23:27.885Z,79.83
2022-11-15T15:25:56.715Z,80.07
2022-11-15T15:28:28.694Z,80.40
2022-11-15T15:31:01.160Z,80.62
2022-11-15T15:33:30.500Z,80.99
2022-11-15T15:35:58.813Z,81.29
2022-11-15T15:38:30.158Z,81.41
2022-11-15T15:41:00.659Z,81.69
2022-11-15T15:43:29.492Z,81.92
2022-11-15T15:46:04.573Z,82.11
2022-11-15T15:48:38.126Z,82.42
2022-11-15T15:51:15.483Z,82.69
2022-11-15T15:53:48.134Z,82.84
2022-11-15T15:56:16.790Z,83.00
2022-11-15T15:58:45.577Z,83.24
2022-11-15T16:01:14.413Z,83.42
2022-11-15T16:03:43.789Z,83.43
2022-11-15T16:06:41.439Z,83.43
2022-11-15T16:09:41.912Z,83.52
2022-11-15T16:12:11.856Z,83.73
2022-11-15T16:14:42.674Z,83.94
2022-11-15T16:17:11.685Z,84.11
2022-11-15T16:19:47.096Z,84.21
2022-11-15T16:22:15.513Z,84.32
2022-11-15T16:24:48.403Z,84.37
2022-11-15T16:27:17.401Z,84.44
2022-11-15T16:29:45.907Z,84.56
2022-11-15T16:32:14.930Z,84.65
2022-11-15T16:34:49.221Z,85.52
2022-11-15T16:37:24.596Z,85.59
2022-11-15T16:40:00.737Z,85.56
2022-11-15T16:42:31.320Z,85.89
2022-11-15T16:45:00.250Z,84.87
2022-11-15T16:47:28.347Z,84.78
2022-11-15T16:49:58.322Z,85.27
2022-11-15T16:52:27.869Z,85.15
2022-11-15T16:54:57.401Z,84.65
2022-11-15T16:57:25.468Z,85.05
2022-11-15T16:59:53.499Z,85.20
2022-11-15T17:02:27.181Z,85.57
2022-11-15T17:04:58.909Z,84.99
2022-11-15T17:07:29.420Z,84.91
2022-11-15T17:09:59.655Z,85.17
2022-11-15T17:12:31.018Z,85.65
2022-11-15T17:15:06.807Z,85.94
2022-11-15T17:17:38.852Z,86.32
2022-11-15T17:20:15.891Z,86.69
2022-11-15T17:22:44.199Z,87.17
2022-11-15T17:25:12.353Z,87.48
2022-11-15T17:27:41.486Z,87.79
2022-11-15T17:30:14.183Z,87.93
2022-11-15T17:32:43.353Z,88.21
2022-11-15T17:35:15.979Z,88.28
2022-11-15T17:37:48.710Z,88.35
2022-11-15T17:40:19.461Z,88.63
2022-11-15T17:42:49.132Z,88.79
2022-11-15T17:45:20.912Z,88.89
2022-11-15T17:47:49.537Z,88.96
2022-11-15T17:50:21.201Z,89.19
2022-11-15T17:52:49.551Z,89.00
2022-11-15T17:55:17.788Z,89.09
2022-11-15T17:57:46.176Z,89.23
2022-11-15T18:00:16.773Z,89.40
2022-11-15T18:02:46.338Z,89.62
2022-11-15T18:05:15.423Z,89.68
2022-11-15T18:07:46.504Z,89.60
2022-11-15T18:10:17.123Z,89.59
2022-11-15T18:12:51.074Z,89.56
2022-11-15T18:15:20.712Z,89.63
2022-11-15T18:17:49.070Z,89.61
2022-11-15T18:20:20.255Z,89.73
2022-11-15T18:22:50.440Z,89.71
2022-11-15T18:25:18.598Z,89.87
2022-11-15T18:27:46.745Z,89.93
2022-11-15T18:30:15.700Z,90.13
2022-11-15T18:32:46.811Z,90.19
2022-11-15T18:35:15.958Z,90.39
2022-11-15T18:37:45.083Z,90.55
2022-11-15T18:40:18.110Z,90.60
2022-11-15T18:42:47.615Z,90.65
2022-11-15T18:45:22.922Z,90.82
2022-11-15T18:47:52.585Z,91.10
2022-11-15T18:50:22.016Z,91.19
2022-11-15T18:52:50.466Z,91.32
2022-11-15T18:55:26.249Z,91.42
2022-11-15T18:57:54.770Z,91.63
2022-11-15T19:00:25.201Z,91.83
2022-11-15T19:02:56.907Z,91.86
2022-11-15T19:05:28.433Z,92.09
2022-11-15T19:07:58.193Z,92.14
2022-11-15T19:10:31.435Z,92.20
2022-11-15T19:13:01.220Z,92.31
2022-11-15T19:15:29.650Z,92.62
2022-11-15T19:17:59.220Z,92.68
2022-11-15T19:20:29.481Z,92.86
2022-11-15T19:23:01.323Z,92.94
2022-11-15T19:25:34.652Z,93.04
2022-11-15T19:28:04.206Z,93.27
2022-11-15T19:30:32.602Z,93.38
2022-11-15T19:33:01.277Z,93.50
2022-11-15T19:35:29.967Z,93.54
2022-11-15T19:37:58.703Z,93.59
2022-11-15T19:40:31.441Z,93.75
2022-11-15T19:43:01.411Z,93.80
2022-11-15T19:45:37.441Z,93.86
2022-11-15T19:48:05.945Z,94.06
2022-11-15T19:50:35.089Z,94.18
2022-11-15T19:53:03.570Z,94.23
2022-11-15T19:55:31.876Z,94.23
2022-11-15T19:58:06.299Z,94.30
2022-11-15T20:00:37.017Z,94.43
2022-11-15T20:03:07.612Z,94.42
2022-11-15T20:05:35.921Z,94.44
2022-11-15T20:08:04.693Z,94.57
2022-11-15T20:10:32.697Z,94.65
2022-11-15T20:13:05.086Z,94.65
2022-11-15T20:15:33.435Z,94.73
2022-11-15T20:18:01.567Z,94.65
2022-11-15T20:20:30.813Z,94.80
2022-11-15T20:23:03.230Z,94.72
2022-11-15T20:25:33.124Z,94.80
2022-11-15T20:28:03.911Z,94.84
2022-11-15T20:30:32.204Z,94.85
2022-11-15T20:33:00.580Z,94.89
2022-11-15T20:35:29.052Z,94.93
2022-11-15T20:37:57.646Z,95.01
2022-11-15T20:40:25.712Z,94.99
2022-11-15T20:42:54.968Z,94.95
2022-11-15T20:45:24.885Z,94.94
2022-11-15T20:47:56.182Z,94.93
2022-11-15T20:50:41.562Z,95.02
2022-11-15T20:53:11.454Z,94.97
2022-11-15T20:55:52.459Z,94.94
2022-11-15T20:58:22.316Z,94.86
2022-11-15T21:00:51.652Z,94.98
2022-11-15T21:03:21.526Z,95.02
2022-11-15T21:05:53.529Z,95.11
2022-11-15T21:08:21.868Z,95.23
2022-11-15T21:11:09.292Z,95.31
2022-11-15T21:13:43.403Z,95.35
2022-11-15T21:16:13.286Z,95.41
2022-11-15T21:18:42.007Z,95.44
2022-11-15T21:21:10.334Z,95.45
2022-11-15T21:23:40.838Z,95.56
2022-11-15T21:26:08.889Z,95.62
2022-11-15T21:28:37.360Z,95.68
2022-11-15T21:31:07.753Z,95.70
2022-11-15T21:33:37.190Z,95.78
2022-11-15T21:36:05.592Z,95.86
2022-11-15T21:38:34.048Z,95.88
2022-11-15T21:41:06.370Z,96.02
2022-11-15T21:43:34.867Z,96.00
2022-11-15T21:46:07.127Z,96.02
2022-11-15T21:48:36.085Z,96.13
2022-11-15T21:51:11.023Z,96.17
2022-11-15T21:53:40.338Z,96.23
2022-11-15T21:56:09.386Z,96.27
2022-11-15T21:58:39.510Z,96.33
2022-11-15T22:01:26.486Z,96.33
2022-11-15T22:03:54.633Z,96.41
2022-11-15T22:06:25.712Z,96.44
2022-11-15T22:08:54.245Z,96.50
2022-11-15T22:11:23.349Z,96.57
2022-11-15T22:13:52.819Z,96.60
2022-11-15T22:16:21.345Z,96.64
2022-11-15T22:18:50.981Z,96.64
2022-11-15T22:21:23.274Z,96.66
2022-11-15T22:23:56.091Z,96.64
2022-11-15T22:26:27.429Z,96.73
2022-11-15T22:28:56.306Z,96.74
2022-11-15T22:31:25.378Z,96.76
2022-11-15T22:33:54.446Z,96.78
2022-11-15T22:36:24.431Z,96.75
2022-11-15T22:38:59.200Z,96.81
2022-11-15T22:41:27.176Z,96.86
2022-11-15T22:43:55.867Z,96.85
2022-11-15T22:46:24.073Z,96.84
2022-11-15T22:48:52.321Z,96.88
2022-11-15T22:51:23.127Z,96.93
2022-11-15T22:53:52.267Z,96.91
2022-11-15T22:56:21.787Z,96.85
2022-11-15T22:58:50.183Z,96.97
2022-11-15T23:01:22.862Z,96.89
2022-11-15T23:03:52.570Z,96.92
2022-11-15T23:06:22.060Z,97.01
2022-11-15T23:08:50.281Z,97.00
2022-11-15T23:11:37.632Z,96.96
2022-11-15T23:14:07.286Z,97.00
2022-11-15T23:16:39.106Z,97.04
2022-11-15T23:19:08.626Z,97.09
2022-11-15T23:21:55.599Z,97.05
2022-11-15T23:24:24.336Z,97.06
2022-11-15T23:26:54.409Z,96.99
2022-11-15T23:29:25.131Z,96.97
2022-11-15T23:32:11.326Z,96.91
2022-11-15T23:34:42.597Z,96.96
2022-11-15T23:37:12.748Z,96.99
2022-11-15T23:39:40.935Z,97.00
2022-11-15T23:42:19.599Z,96.96
2022-11-15T23:44:51.784Z,97.01
2022-11-15T23:47:20.180Z,97.01
2022-11-15T23:49:49.886Z,97.03
2022-11-15T23:52:18.545Z,97.05
2022-11-15T23:54:46.882Z,96.99
2022-11-15T23:57:15.515Z,97.00
2022-11-15T23:59:45.178Z,96.98
